Jean Anne — WDC3786 — position and weather

sailwx.info

Track history (hours):
 
Tides and Currents Weather Stations Pressure Air Temp Water Temp Dewpoint Dewpoint Depression Visibility Wind Speed Wind Dir Waves Ship Positions

Jean Anne

Owner: PASHA HAWAII TRANSPORT LINES LLC, National City, CA. More information available from US FCC via Universal Licensing System and Coast Guard Vessel Documentation Center.

Last reported at 2015-Mar-01 18:00 UTC. Time now 2015-Mar-02 00:59 UTC.
Position N 25°54' W 139°24'.

Type: Cargo ship. MMSI: 367003380.

Wind from 070 at 24 knots

Waves 2.0 meters (7 feet), 3 second period

Barometer 1022.0 mb
Air temperature 20.0 ° C
Visibility: greater than 10.8 NM
Dewpoint 14.4 ° C

Date/timePositionNaut miles runAvg speedWind from/ knotsBaromVisibWave heightAir tempDewpointWater temp
2015-Mar-01 18:00N 25°54' W 139°24'45819.1 070 / 241022.010.8 2.020.014.4
2015-Feb-28 18:00N 23°06' W 147°12'   120 / 191016.527.0 23.020.1
2015-Feb-23 18:00N 24°06' W 149°48'44218.4
2015-Feb-22 18:00N 26°30' W 142°06'   050 / 191021.010.8 1.018.011.2
2015-Feb-20 10:22N 30°19' W 123°03'1518.1
2015-Feb-20 09:33N 30°21' W 122°45'2018.3
2015-Feb-20 08:28N 30°25' W 122°23'1918.2
2015-Feb-20 07:26N 30°29' W 122°02'2217.7
2015-Feb-20 06:10N 30°30' W 121°36'1218.7
2015-Feb-20 05:33N 30°33' W 121°22'1818.4
2015-Feb-20 04:33N 30°36' W 121°02'1817.9
2015-Feb-20 03:34N 30°40' W 120°41'1918.2
2015-Feb-20 02:31N 30°44' W 120°20'1818.0
2015-Feb-20 01:31N 30°48' W 119°59'1818.1
2015-Feb-20 00:31N 30°51' W 119°39'2218.1
2015-Feb-19 23:17N 30°56' W 119°13'1317.9
2015-Feb-19 22:33N 30°59' W 118°58'1817.8
2015-Feb-19 21:33N 31°02' W 118°38'1918.1
2015-Feb-19 20:31N 31°17' W 118°24'1818.4
2015-Feb-19 19:34N 31°31' W 118°11'1918.2
2015-Feb-19 18:31N 31°46' W 117°58'  
Track history (hours):
 
Tides and Currents Weather Stations Pressure Air Temp Water Temp Dewpoint Dewpoint Depression Visibility Wind Speed Wind Dir Waves Ship Positions

Jean Anne

Owner: PASHA HAWAII TRANSPORT LINES LLC, National City, CA. More information available from US FCC via Universal Licensing System and Coast Guard Vessel Documentation Center.

Last reported at 2015-Mar-01 18:00 UTC. Time now 2015-Mar-02 00:59 UTC.
Position N 25°54' W 139°24'.

Type: Cargo ship. MMSI: 367003380.

Wind from 070 at 24 knots

Waves 2.0 meters (7 feet), 3 second period

Barometer 1022.0 mb
Air temperature 20.0 ° C
Visibility: greater than 10.8 NM
Dewpoint 14.4 ° C

Date/timePositionNaut miles runAvg speedWind from/ knotsBaromVisibWave heightAir tempDewpointWater temp
2015-Mar-01 18:00N 25°54' W 139°24'45819.1 070 / 241022.010.8 2.020.014.4
2015-Feb-28 18:00N 23°06' W 147°12'   120 / 191016.527.0 23.020.1
2015-Feb-23 18:00N 24°06' W 149°48'44218.4
2015-Feb-22 18:00N 26°30' W 142°06'   050 / 191021.010.8 1.018.011.2
2015-Feb-20 10:22N 30°19' W 123°03'1518.1
2015-Feb-20 09:33N 30°21' W 122°45'2018.3
2015-Feb-20 08:28N 30°25' W 122°23'1918.2
2015-Feb-20 07:26N 30°29' W 122°02'2217.7
2015-Feb-20 06:10N 30°30' W 121°36'1218.7
2015-Feb-20 05:33N 30°33' W 121°22'1818.4
2015-Feb-20 04:33N 30°36' W 121°02'1817.9
2015-Feb-20 03:34N 30°40' W 120°41'1918.2
2015-Feb-20 02:31N 30°44' W 120°20'1818.0
2015-Feb-20 01:31N 30°48' W 119°59'1818.1
2015-Feb-20 00:31N 30°51' W 119°39'2218.1
2015-Feb-19 23:17N 30°56' W 119°13'1317.9
2015-Feb-19 22:33N 30°59' W 118°58'1817.8
2015-Feb-19 21:33N 31°02' W 118°38'1918.1
2015-Feb-19 20:31N 31°17' W 118°24'1818.4
2015-Feb-19 19:34N 31°31' W 118°11'1918.2
2015-Feb-19 18:31N 31°46' W 117°58'  

Dump ship's entire track history